Terminal Aerodrome Forecast
Issued by NWS

Home | Current Version | Previous Version | Text Only | Print | Product List | Glossary On
Versions: 1 2 3 4 5 6 7 8 9 10 11 12 13 14 15 16 17 18 19 20 21 22 23 24 25 26 27 28
823
FTUS41 KBUF 170916 AAC
TAFIAG
TAF AMD
KIAG 170916Z 1709/1806 24015G21KT P6SM BKN015
      TEMPO 1709/1711 3SM -SN BKN015
     FM171300 23010KT P6SM BKN130
     FM171900 23014G21KT P6SM BKN070
     FM180100 23017G26KT P6SM OVC080=

USA.gov is the U.S. government's official web portal to all federal, state and local government web resources and services.